createdAt,value
2023-05-19T00:02:15.612Z,101288.38
2023-05-19T00:04:47.458Z,101291.47
2023-05-19T00:07:20.477Z,101294.75
2023-05-19T00:09:51.836Z,101296.16
2023-05-19T00:12:20.127Z,101297.84
2023-05-19T00:14:53.264Z,101301.44
2023-05-19T00:17:22.653Z,101300.72
2023-05-19T00:19:52.489Z,101299.34
2023-05-19T00:22:21.031Z,101293.31
2023-05-19T00:24:51.617Z,101297.03
2023-05-19T00:27:28.056Z,101295.31
2023-05-19T00:29:57.543Z,101293.44
2023-05-19T00:32:26.415Z,101292.69
2023-05-19T00:34:57.080Z,101299.16
2023-05-19T00:37:25.925Z,101301.69
2023-05-19T00:39:54.074Z,101300.22
2023-05-19T00:42:22.747Z,101299.59
2023-05-19T00:44:52.152Z,101295.31
2023-05-19T00:47:20.629Z,101292.69
2023-05-19T00:49:49.161Z,101287.50
2023-05-19T00:52:18.708Z,101282.69
2023-05-19T00:54:51.374Z,101279.84
2023-05-19T00:57:21.378Z,101277.72
2023-05-19T00:59:52.855Z,101284.91
2023-05-19T01:02:21.662Z,101279.09
2023-05-19T01:04:51.806Z,101281.00
2023-05-19T01:07:23.316Z,101284.28
2023-05-19T01:09:52.005Z,101280.78
2023-05-19T01:12:20.283Z,101282.28
2023-05-19T01:14:48.897Z,101277.19
2023-05-19T01:17:25.877Z,101279.09
2023-05-19T01:20:05.129Z,101270.44
2023-05-19T01:23:01.986Z,101269.69
2023-05-19T01:25:46.144Z,101273.59
2023-05-19T01:28:51.621Z,101270.97
2023-05-19T01:31:29.895Z,101266.31
2023-05-19T01:33:59.584Z,101268.09
2023-05-19T01:36:29.121Z,101273.50
2023-05-19T01:39:00.654Z,101271.06
2023-05-19T01:41:32.587Z,101275.81
2023-05-19T01:44:02.052Z,101267.69
2023-05-19T01:46:32.272Z,101276.94
2023-05-19T01:49:01.666Z,101270.63
2023-05-19T01:51:29.973Z,101271.59
2023-05-19T01:53:58.843Z,101274.22
2023-05-19T01:56:40.025Z,101275.38
2023-05-19T01:59:17.701Z,101277.91
2023-05-19T02:01:54.271Z,101282.44
2023-05-19T02:04:39.223Z,101280.84
2023-05-19T02:07:17.136Z,101282.84
2023-05-19T02:09:54.084Z,101282.72
2023-05-19T02:12:29.935Z,101283.59
2023-05-19T02:15:05.276Z,101276.31
2023-05-19T02:17:37.684Z,101282.53
2023-05-19T02:20:07.354Z,101283.44
2023-05-19T02:22:36.164Z,101284.09
2023-05-19T02:25:08.523Z,101286.84
2023-05-19T02:27:44.458Z,101280.06
2023-05-19T02:30:16.753Z,101284.50
2023-05-19T02:32:48.929Z,101284.50
2023-05-19T02:35:17.414Z,101282.72
2023-05-19T02:37:46.243Z,101278.28
2023-05-19T02:40:16.487Z,101281.97
2023-05-19T02:42:45.500Z,101274.16
2023-05-19T02:45:15.302Z,101273.34
2023-05-19T02:47:43.799Z,101275.31
2023-05-19T02:50:13.232Z,101272.03
2023-05-19T02:52:42.195Z,101271.09
2023-05-19T02:55:16.974Z,101267.06
2023-05-19T02:57:45.001Z,101267.19
2023-05-19T03:00:15.096Z,101262.09
2023-05-19T03:02:45.080Z,101258.72
2023-05-19T03:05:18.478Z,101270.13
2023-05-19T03:07:47.520Z,101259.69
2023-05-19T03:10:15.574Z,101262.41
2023-05-19T03:12:43.594Z,101262.69
2023-05-19T03:15:15.056Z,101264.38
2023-05-19T03:17:44.536Z,101267.88
2023-05-19T03:20:15.845Z,101266.59
2023-05-19T03:22:46.459Z,101266.59
2023-05-19T03:25:14.790Z,101273.44
2023-05-19T03:27:44.719Z,101273.63
2023-05-19T03:30:15.331Z,101270.69
2023-05-19T03:33:03.071Z,101266.47
2023-05-19T03:35:34.124Z,101268.66
2023-05-19T03:38:03.809Z,101268.66
2023-05-19T03:40:32.129Z,101279.13
2023-05-19T03:43:07.933Z,101277.59
2023-05-19T03:45:43.271Z,101281.41
2023-05-19T03:48:31.536Z,101277.47
2023-05-19T03:51:18.234Z,101273.97
2023-05-19T03:53:54.404Z,101278.00
2023-05-19T03:56:27.485Z,101278.00
2023-05-19T03:58:58.304Z,101281.59
2023-05-19T04:01:26.458Z,101290.72
2023-05-19T04:03:55.097Z,101279.16
2023-05-19T04:06:24.738Z,101281.50
2023-05-19T04:09:03.526Z,101286.84
2023-05-19T04:11:31.727Z,101275.38
2023-05-19T04:14:00.131Z,101282.34
2023-05-19T04:16:31.291Z,101282.44
2023-05-19T04:19:02.414Z,101273.69
2023-05-19T04:21:30.642Z,101275.19
2023-05-19T04:24:00.364Z,101278.56
2023-05-19T04:26:31.250Z,101284.59
2023-05-19T04:28:59.233Z,101281.41
2023-05-19T04:31:28.709Z,101279.50
2023-05-19T04:34:02.109Z,101283.56
2023-05-19T04:36:34.141Z,101281.59
2023-05-19T04:39:10.080Z,101278.78
2023-05-19T04:41:44.763Z,101284.69
2023-05-19T04:44:18.471Z,101283.66
2023-05-19T04:46:50.050Z,101288.06
2023-05-19T04:49:19.983Z,101288.50
2023-05-19T04:51:50.841Z,101285.84
2023-05-19T04:54:26.808Z,101292.63
2023-05-19T04:56:55.282Z,101290.63
2023-05-19T04:59:23.494Z,101292.22
2023-05-19T05:01:52.794Z,101290.34
2023-05-19T05:04:21.764Z,101293.41
2023-05-19T05:06:50.481Z,101299.22
2023-05-19T05:09:20.056Z,101294.59
2023-05-19T05:11:53.553Z,101287.44
2023-05-19T05:14:22.643Z,101290.53
2023-05-19T05:16:52.848Z,101292.75
2023-05-19T05:19:25.752Z,101292.03
2023-05-19T05:21:56.002Z,101292.03
2023-05-19T05:24:25.371Z,101294.69
2023-05-19T05:26:59.218Z,101287.72
2023-05-19T05:29:28.252Z,101288.78
2023-05-19T05:31:56.893Z,101285.19
2023-05-19T05:34:26.485Z,101284.78
2023-05-19T05:36:54.729Z,101282.13
2023-05-19T05:39:23.674Z,101280.03
2023-05-19T05:41:51.951Z,101285.19
2023-05-19T05:44:22.959Z,101283.97
2023-05-19T05:46:52.676Z,101283.50
2023-05-19T05:49:21.772Z,101279.09
2023-05-19T05:52:04.930Z,101285.00
2023-05-19T05:54:37.954Z,101279.41
2023-05-19T05:57:10.125Z,101278.34
2023-05-19T05:59:45.461Z,101283.13
2023-05-19T06:02:14.571Z,101289.22
2023-05-19T06:04:45.101Z,101283.53
2023-05-19T06:07:13.019Z,101287.44
2023-05-19T06:09:41.156Z,101287.63
2023-05-19T06:12:12.033Z,101279.38
2023-05-19T06:14:47.624Z,101283.09
2023-05-19T06:17:40.941Z,101274.72
2023-05-19T06:20:14.380Z,101271.44
2023-05-19T06:22:42.349Z,101274.25
2023-05-19T06:25:11.708Z,101268.34
2023-05-19T06:27:40.082Z,101260.69
2023-05-19T06:30:11.538Z,101258.34
2023-05-19T06:32:51.746Z,101267.50
2023-05-19T06:35:22.884Z,101261.75
2023-05-19T06:37:55.748Z,101266.47
2023-05-19T06:40:24.863Z,101262.94
2023-05-19T06:42:53.515Z,101262.47
2023-05-19T06:45:36.987Z,101265.13
2023-05-19T06:48:08.162Z,101260.88
2023-05-19T06:50:37.058Z,101272.41
2023-05-19T06:53:06.541Z,101269.00
2023-05-19T06:55:39.220Z,101265.53
2023-05-19T06:58:18.065Z,101265.56
2023-05-19T07:00:49.023Z,101259.19
2023-05-19T07:03:20.064Z,101262.91
2023-05-19T07:05:53.214Z,101257.50
2023-05-19T07:08:21.915Z,101258.94
2023-05-19T07:10:50.839Z,101247.47
2023-05-19T07:13:19.392Z,101260.72
2023-05-19T07:15:49.964Z,101251.91
2023-05-19T07:18:21.547Z,101245.00
2023-05-19T07:20:49.895Z,101250.41
2023-05-19T07:23:17.989Z,101247.41
2023-05-19T07:25:48.042Z,101238.25
2023-05-19T07:28:16.727Z,101232.56
2023-05-19T07:30:47.452Z,101225.66
2023-05-19T07:33:19.757Z,101229.09
2023-05-19T07:35:51.893Z,101228.44
2023-05-19T07:38:20.906Z,101230.78
2023-05-19T07:40:51.952Z,101222.75
2023-05-19T07:43:20.862Z,101222.69
2023-05-19T07:45:49.047Z,101219.84
2023-05-19T07:48:18.786Z,101223.81
2023-05-19T07:50:48.320Z,101217.78
2023-05-19T07:53:16.828Z,101217.25
2023-05-19T07:55:47.148Z,101219.97
2023-05-19T07:58:15.927Z,101222.41
2023-05-19T08:00:45.921Z,101208.69
2023-05-19T08:03:17.758Z,101213.19
2023-05-19T08:05:46.347Z,101212.88
2023-05-19T08:08:19.670Z,101209.41
2023-05-19T08:10:48.273Z,101199.47
2023-05-19T08:13:16.677Z,101203.38
2023-05-19T08:15:46.227Z,101191.22
2023-05-19T08:18:20.717Z,101197.94
2023-05-19T08:20:52.766Z,101190.09
2023-05-19T08:23:23.166Z,101189.56
2023-05-19T08:25:52.332Z,101198.78
2023-05-19T08:28:22.566Z,101196.25
2023-05-19T08:30:52.479Z,101190.16
2023-05-19T08:33:23.066Z,101192.09
2023-05-19T08:35:51.088Z,101185.53
2023-05-19T08:38:22.888Z,101186.09
2023-05-19T08:40:53.744Z,101191.97
2023-05-19T08:43:27.361Z,101191.66
2023-05-19T08:45:56.583Z,101180.19
2023-05-19T08:48:25.598Z,101178.22
2023-05-19T08:51:09.381Z,101179.59
2023-05-19T08:53:43.906Z,101176.41
2023-05-19T08:56:17.406Z,101169.94
2023-05-19T08:58:51.920Z,101168.44
2023-05-19T09:01:21.292Z,101165.06
2023-05-19T09:03:51.195Z,101164.91
2023-05-19T09:06:23.355Z,101159.72
2023-05-19T09:08:57.348Z,101155.38
2023-05-19T09:11:26.122Z,101155.50
2023-05-19T09:13:56.667Z,101150.31
2023-05-19T09:16:30.035Z,101145.63
2023-05-19T09:19:02.092Z,101146.34
2023-05-19T09:21:32.276Z,101135.19
2023-05-19T09:24:06.433Z,101143.09
2023-05-19T09:26:40.186Z,101139.81
2023-05-19T09:29:14.901Z,101133.06
2023-05-19T09:31:51.588Z,101124.94
2023-05-19T09:34:25.104Z,101122.47
2023-05-19T09:36:59.741Z,101133.94
2023-05-19T09:39:34.138Z,101120.94
2023-05-19T09:42:09.973Z,101123.16
2023-05-19T09:44:38.848Z,101118.75
2023-05-19T09:47:11.162Z,101114.22
2023-05-19T09:49:48.803Z,101112.53
2023-05-19T09:52:19.218Z,101097.63
2023-05-19T09:54:51.642Z,101095.56
2023-05-19T09:57:26.966Z,101088.94
2023-05-19T09:59:58.406Z,101090.63
2023-05-19T10:02:31.685Z,101090.84
2023-05-19T10:05:05.687Z,101095.53
2023-05-19T10:07:34.847Z,101094.38
2023-05-19T10:10:12.923Z,101086.84
2023-05-19T10:12:43.046Z,101081.66
2023-05-19T10:15:14.305Z,101084.84
2023-05-19T10:17:46.674Z,101085.34
2023-05-19T10:20:17.969Z,101079.81
2023-05-19T10:22:48.730Z,101073.59
2023-05-19T10:25:19.928Z,101079.28
2023-05-19T10:27:56.196Z,101075.63
2023-05-19T10:30:29.443Z,101063.75
2023-05-19T10:33:02.467Z,101067.59
2023-05-19T10:36:01.276Z,101057.75
2023-05-19T10:38:37.274Z,101063.94
2023-05-19T10:41:13.676Z,101061.25
2023-05-19T10:43:56.196Z,101058.28
2023-05-19T10:46:28.418Z,101048.56
2023-05-19T10:48:56.759Z,101048.88
2023-05-19T10:51:31.852Z,101041.50
2023-05-19T10:54:02.938Z,101040.09
2023-05-19T10:56:36.334Z,101045.56
2023-05-19T10:59:05.478Z,101029.22
2023-05-19T11:01:35.870Z,101030.47
2023-05-19T11:04:09.212Z,101022.06
2023-05-19T11:06:38.973Z,101033.41
2023-05-19T11:09:17.001Z,101032.63
2023-05-19T11:11:50.407Z,101031.91
2023-05-19T11:14:21.528Z,101029.16
2023-05-19T11:16:50.521Z,101034.34
2023-05-19T11:19:21.358Z,101035.16
2023-05-19T11:21:52.638Z,101034.44
2023-05-19T11:24:39.960Z,101038.72
2023-05-19T11:27:31.865Z,101041.88
2023-05-19T11:30:02.082Z,101039.59
2023-05-19T11:32:33.516Z,101041.47
2023-05-19T11:35:02.008Z,101033.34
2023-05-19T11:37:33.371Z,101033.03
2023-05-19T11:40:04.839Z,101041.28
2023-05-19T11:42:37.286Z,101042.72
2023-05-19T11:45:10.701Z,101039.25
2023-05-19T11:47:56.390Z,101045.38
2023-05-19T11:50:30.212Z,101026.41
2023-05-19T11:52:58.894Z,101017.09
2023-05-19T11:55:30.063Z,101017.38
2023-05-19T12:00:37.113Z,101009.50
2023-05-19T12:03:05.899Z,101005.81
2023-05-19T12:05:42.064Z,101007.72
2023-05-19T12:08:11.833Z,101003.16
2023-05-19T12:10:41.177Z,101009.38
2023-05-19T12:13:13.926Z,101005.59
2023-05-19T12:15:42.162Z,101014.13
2023-05-19T12:18:11.025Z,101013.00
2023-05-19T12:20:39.214Z,101006.56
2023-05-19T12:23:07.669Z,101007.66
2023-05-19T12:25:36.190Z,101004.47
2023-05-19T12:28:07.213Z,101005.63
2023-05-19T12:30:37.019Z,101000.91
2023-05-19T12:33:05.825Z,101002.06
2023-05-19T12:35:34.355Z,100997.41
2023-05-19T12:38:05.982Z,100999.00
2023-05-19T12:40:36.765Z,100997.78
2023-05-19T12:43:06.898Z,100991.47
2023-05-19T12:45:38.206Z,100993.72
2023-05-19T12:48:15.922Z,100991.50
2023-05-19T12:50:45.262Z,100986.03
2023-05-19T12:53:13.791Z,100994.88
2023-05-19T12:55:43.737Z,100990.25
2023-05-19T12:58:12.946Z,100985.50
2023-05-19T13:00:47.324Z,100976.47
2023-05-19T13:03:17.576Z,100974.97
2023-05-19T13:05:47.739Z,100976.13
2023-05-19T13:08:18.207Z,100975.34
2023-05-19T13:10:50.063Z,100973.09
2023-05-19T13:13:20.268Z,100967.88
2023-05-19T13:15:49.664Z,100973.84
2023-05-19T13:18:18.388Z,100966.03
2023-05-19T13:20:51.424Z,100958.88
2023-05-19T13:23:19.664Z,100955.28
2023-05-19T13:25:47.844Z,100961.75
2023-05-19T13:28:19.555Z,100947.31
2023-05-19T13:30:49.804Z,100945.59
2023-05-19T13:33:19.255Z,100949.75
2023-05-19T13:35:51.272Z,100952.63
2023-05-19T13:38:21.800Z,100945.38
2023-05-19T13:40:50.211Z,100948.53
2023-05-19T13:43:18.183Z,100936.06
2023-05-19T13:45:46.713Z,100941.50
2023-05-19T13:48:16.678Z,100950.00
2023-05-19T13:50:46.919Z,100953.28
2023-05-19T13:53:15.199Z,100947.00
2023-05-19T13:55:43.392Z,100939.63
2023-05-19T13:58:12.514Z,100937.44
2023-05-19T14:00:40.915Z,100940.06
2023-05-19T14:03:09.126Z,100943.41
2023-05-19T14:05:39.217Z,100942.06
2023-05-19T14:08:07.662Z,100945.56
2023-05-19T14:10:35.895Z,100938.78
2023-05-19T14:13:29.870Z,100935.13
2023-05-19T14:15:59.099Z,100935.41
2023-05-19T14:18:28.394Z,100938.16
2023-05-19T14:21:00.274Z,100941.81
2023-05-19T14:23:30.170Z,100935.22
2023-05-19T14:25:58.295Z,100940.06
2023-05-19T14:28:26.738Z,100933.47
2023-05-19T14:30:54.812Z,100936.88
2023-05-19T14:33:23.080Z,100935.53
2023-05-19T14:35:51.004Z,100931.31
2023-05-19T14:38:20.511Z,100930.28
2023-05-19T14:40:50.495Z,100926.97
2023-05-19T14:43:18.627Z,100922.22
2023-05-19T14:48:15.078Z,100930.22
2023-05-19T14:50:43.100Z,100921.66
2023-05-19T14:53:11.594Z,100921.66
2023-05-19T14:55:42.243Z,100923.31
2023-05-19T14:58:27.025Z,100926.56
2023-05-19T15:00:58.171Z,100926.00
2023-05-19T15:03:28.666Z,100920.88
2023-05-19T15:05:58.976Z,100919.75
2023-05-19T15:08:27.783Z,100916.44
2023-05-19T15:10:57.381Z,100926.47
2023-05-19T15:13:27.419Z,100928.03
2023-05-19T15:16:15.589Z,100922.56
2023-05-19T15:18:46.795Z,100926.72
2023-05-19T15:21:17.060Z,100923.97
2023-05-19T15:23:45.111Z,100926.09
2023-05-19T15:26:14.592Z,100926.13
2023-05-19T15:28:45.304Z,100925.75
2023-05-19T15:31:13.620Z,100920.47
2023-05-19T15:33:42.045Z,100919.06
2023-05-19T15:36:16.231Z,100913.03
2023-05-19T15:38:44.513Z,100917.00
2023-05-19T15:41:15.205Z,100920.22
2023-05-19T15:43:46.397Z,100914.72
2023-05-19T15:46:16.069Z,100919.47
2023-05-19T15:48:45.425Z,100916.16
2023-05-19T15:51:13.486Z,100914.28
2023-05-19T15:53:43.952Z,100918.00
2023-05-19T15:56:13.368Z,100915.75
2023-05-19T15:58:45.302Z,100912.47
2023-05-19T16:01:16.328Z,100909.59
2023-05-19T16:03:45.361Z,100913.81
2023-05-19T16:06:13.626Z,100913.78
2023-05-19T16:08:44.537Z,100911.97
2023-05-19T16:11:12.420Z,100907.84
2023-05-19T16:13:40.766Z,100894.53
2023-05-19T16:16:11.600Z,100894.06
2023-05-19T16:18:39.954Z,100898.09
2023-05-19T16:21:10.486Z,100895.41
2023-05-19T16:23:41.698Z,100908.06
2023-05-19T16:26:09.570Z,100896.38
2023-05-19T16:28:38.143Z,100898.94
2023-05-19T16:31:07.068Z,100903.94
2023-05-19T16:33:36.438Z,100902.72
2023-05-19T16:36:07.427Z,100907.38
2023-05-19T16:38:40.475Z,100901.50
2023-05-19T16:41:12.911Z,100894.44
2023-05-19T16:43:41.126Z,100891.72
2023-05-19T16:46:12.000Z,100882.53
2023-05-19T16:48:41.989Z,100896.47
2023-05-19T16:51:12.504Z,100894.56
2023-05-19T16:53:41.432Z,100889.28
2023-05-19T16:56:09.845Z,100889.28
2023-05-19T16:58:38.048Z,100890.44
2023-05-19T17:01:07.463Z,100883.94
2023-05-19T17:03:37.996Z,100872.34
2023-05-19T17:06:07.759Z,100882.38
2023-05-19T17:08:36.381Z,100880.75
2023-05-19T17:11:06.365Z,100891.00
2023-05-19T17:13:36.489Z,100886.53
2023-05-19T17:16:04.892Z,100882.94
2023-05-19T17:18:33.031Z,100894.16
2023-05-19T17:21:06.056Z,100888.38
2023-05-19T17:23:35.524Z,100885.75
2023-05-19T17:26:06.185Z,100896.34
2023-05-19T17:28:35.097Z,100890.25
2023-05-19T17:31:10.733Z,100893.72
2023-05-19T17:33:41.426Z,100902.47
2023-05-19T17:36:14.462Z,100903.19
2023-05-19T17:38:47.722Z,100906.63
2023-05-19T17:41:15.844Z,100905.25
2023-05-19T17:43:44.205Z,100905.53
2023-05-19T17:46:12.921Z,100907.00
2023-05-19T17:48:41.699Z,100914.47
2023-05-19T17:51:12.690Z,100911.31
2023-05-19T17:53:41.729Z,100909.66
2023-05-19T17:56:13.829Z,100905.31
2023-05-19T17:58:46.622Z,100906.75
2023-05-19T18:01:15.713Z,100908.97
2023-05-19T18:03:50.765Z,100911.84
2023-05-19T18:06:20.587Z,100916.66
2023-05-19T18:08:51.285Z,100924.25
2023-05-19T18:11:21.839Z,100915.34
2023-05-19T18:13:52.622Z,100924.50
2023-05-19T18:16:20.950Z,100918.41
2023-05-19T18:18:50.430Z,100921.06
2023-05-19T18:21:20.821Z,100922.50
2023-05-19T18:23:52.650Z,100925.09
2023-05-19T18:26:24.531Z,100923.00
2023-05-19T18:28:52.706Z,100920.84
2023-05-19T18:31:25.571Z,100921.91
2023-05-19T18:33:53.919Z,100913.78
2023-05-19T18:36:22.086Z,100915.19
2023-05-19T18:38:53.195Z,100920.09
2023-05-19T18:41:21.622Z,100919.25
2023-05-19T18:43:51.149Z,100920.97
2023-05-19T18:46:19.709Z,100917.97
2023-05-19T18:48:50.125Z,100922.34
2023-05-19T18:51:19.920Z,100921.88
2023-05-19T18:53:50.088Z,100914.16
2023-05-19T18:56:27.309Z,100927.03
2023-05-19T18:58:57.157Z,100915.84
2023-05-19T19:01:25.500Z,100918.28
2023-05-19T19:03:54.670Z,100920.28
2023-05-19T19:06:23.994Z,100927.94
2023-05-19T19:08:56.179Z,100922.56
2023-05-19T19:11:26.358Z,100923.72
2023-05-19T19:13:58.596Z,100921.84
2023-05-19T19:16:26.565Z,100921.31
2023-05-19T19:18:55.523Z,100926.66
2023-05-19T19:21:24.443Z,100926.47
2023-05-19T19:24:03.920Z,100918.28
2023-05-19T19:26:32.290Z,100926.56
2023-05-19T19:29:01.626Z,100930.22
2023-05-19T19:31:33.152Z,100928.81
2023-05-19T19:34:08.555Z,100932.31
2023-05-19T19:36:36.545Z,100933.75
2023-05-19T19:39:06.811Z,100924.56
2023-05-19T19:41:38.377Z,100938.22
2023-05-19T19:44:08.676Z,100936.84
2023-05-19T19:46:39.296Z,100941.00
2023-05-19T19:49:09.534Z,100938.63
2023-05-19T19:51:37.956Z,100937.75
2023-05-19T19:54:05.942Z,100941.56
2023-05-19T19:56:34.348Z,100941.88
2023-05-19T19:59:03.409Z,100934.03
2023-05-19T20:01:34.095Z,100943.78
2023-05-19T20:04:03.168Z,100937.56
2023-05-19T20:06:32.268Z,100941.84
2023-05-19T20:09:01.025Z,100942.63
2023-05-19T20:11:29.570Z,100946.22
2023-05-19T20:14:00.380Z,100950.44
2023-05-19T20:16:28.911Z,100946.00
2023-05-19T20:19:03.075Z,100946.94
2023-05-19T20:21:33.465Z,100949.91
2023-05-19T20:24:02.807Z,100943.50
2023-05-19T20:26:33.686Z,100945.78
2023-05-19T20:29:03.125Z,100949.50
2023-05-19T20:31:31.209Z,100948.41
2023-05-19T20:34:01.711Z,100949.00
2023-05-19T20:36:31.984Z,100948.47
2023-05-19T20:39:01.245Z,100950.72
2023-05-19T20:41:30.321Z,100952.56
2023-05-19T20:43:58.436Z,100944.34
2023-05-19T20:46:33.277Z,100949.25
2023-05-19T20:49:01.706Z,100949.16
2023-05-19T20:51:31.325Z,100949.19
2023-05-19T20:54:00.632Z,100954.63
2023-05-19T20:56:30.978Z,100946.41
2023-05-19T20:58:59.871Z,100959.97
2023-05-19T21:01:31.271Z,100953.13
2023-05-19T21:04:00.614Z,100956.41
2023-05-19T21:06:28.849Z,100951.66
2023-05-19T21:08:58.382Z,100954.75
2023-05-19T21:11:26.994Z,100941.03
2023-05-19T21:13:56.260Z,100950.13
2023-05-19T21:16:24.906Z,100954.09
2023-05-19T21:18:53.886Z,100949.03
2023-05-19T21:21:24.828Z,100954.66
2023-05-19T21:23:53.807Z,100955.91
2023-05-19T21:26:37.288Z,100949.34
2023-05-19T21:29:08.677Z,100954.13
2023-05-19T21:31:40.364Z,100951.72
2023-05-19T21:34:19.205Z,100948.94
2023-05-19T21:36:54.791Z,100955.81
2023-05-19T21:39:29.842Z,100949.25
2023-05-19T21:42:11.844Z,100958.63
2023-05-19T21:44:40.616Z,100951.22
2023-05-19T21:47:15.828Z,100959.31
2023-05-19T21:49:52.948Z,100956.94
2023-05-19T21:52:39.726Z,100951.31
2023-05-19T21:55:15.887Z,100955.25
2023-05-19T21:58:03.065Z,100961.78
2023-05-19T22:00:31.494Z,100954.13
2023-05-19T22:03:12.453Z,100954.13
2023-05-19T22:05:43.749Z,100948.13
2023-05-19T22:08:18.457Z,100953.69
2023-05-19T22:10:50.666Z,100951.44
2023-05-19T22:13:27.063Z,100946.56
2023-05-19T22:16:04.596Z,100950.44
2023-05-19T22:18:32.915Z,100952.81
2023-05-19T22:21:01.248Z,100954.78
2023-05-19T22:23:29.441Z,100959.38
2023-05-19T22:26:00.675Z,100956.16
2023-05-19T22:28:30.772Z,100951.25
2023-05-19T22:31:01.249Z,100954.03
2023-05-19T22:33:30.047Z,100950.69
2023-05-19T22:35:59.890Z,100948.31
2023-05-19T22:38:34.292Z,100950.41
2023-05-19T22:41:03.446Z,100946.22
2023-05-19T22:43:32.834Z,100947.44
2023-05-19T22:46:01.028Z,100948.72
2023-05-19T22:48:30.820Z,100940.31
2023-05-19T22:51:03.473Z,100952.88
2023-05-19T22:53:31.500Z,100943.94
2023-05-19T22:56:00.241Z,100941.28
2023-05-19T22:58:35.322Z,100953.00
2023-05-19T23:01:18.900Z,100945.56
2023-05-19T23:03:52.478Z,100939.88
2023-05-19T23:06:24.476Z,100933.25
2023-05-19T23:09:04.219Z,100935.91
2023-05-19T23:11:37.344Z,100941.38
2023-05-19T23:14:08.911Z,100940.78
2023-05-19T23:16:55.547Z,100936.31
2023-05-19T23:19:24.021Z,100935.34
2023-05-19T23:21:53.842Z,100931.00
2023-05-19T23:24:22.902Z,100934.50
2023-05-19T23:26:55.343Z,100930.88
2023-05-19T23:29:51.526Z,100934.94
2023-05-19T23:32:24.488Z,100934.22
2023-05-19T23:34:53.786Z,100937.59
2023-05-19T23:37:24.988Z,100933.00
2023-05-19T23:39:59.079Z,100924.78
2023-05-19T23:42:29.761Z,100929.94
2023-05-19T23:45:01.206Z,100924.06
2023-05-19T23:47:34.870Z,100918.66
2023-05-19T23:50:08.888Z,100915.84
2023-05-19T23:52:38.530Z,100921.88
2023-05-19T23:55:07.930Z,100923.53
2023-05-19T23:57:38.783Z,100921.88
